sensor_id;sensor_type;location;lat;lon;timestamp;temperature;humidity
30973;DHT22;25423;45.624;13.790;2023-03-01T00:01:02;6.00;99.90
30973;DHT22;25423;45.624;13.790;2023-03-01T00:03:27;6.00;99.90
30973;DHT22;25423;45.624;13.790;2023-03-01T00:05:53;6.00;99.90
30973;DHT22;25423;45.624;13.790;2023-03-01T00:08:19;6.00;99.90
30973;DHT22;25423;45.624;13.790;2023-03-01T00:10:44;6.00;99.90
30973;DHT22;25423;45.624;13.790;2023-03-01T00:13:10;6.10;99.90
30973;DHT22;25423;45.624;13.790;2023-03-01T00:15:39;6.00;99.90
30973;DHT22;25423;45.624;13.790;2023-03-01T00:18:05;6.00;99.90
30973;DHT22;25423;45.624;13.790;2023-03-01T00:20:31;6.00;99.90
30973;DHT22;25423;45.624;13.790;2023-03-01T00:22:57;6.00;99.90
30973;DHT22;25423;45.624;13.790;2023-03-01T00:25:22;6.10;99.90
30973;DHT22;25423;45.624;13.790;2023-03-01T00:27:48;6.10;99.90
30973;DHT22;25423;45.624;13.790;2023-03-01T00:30:14;6.10;99.90
30973;DHT22;25423;45.624;13.790;2023-03-01T00:32:40;6.10;99.90
30973;DHT22;25423;45.624;13.790;2023-03-01T00:35:06;6.10;99.90
30973;DHT22;25423;45.624;13.790;2023-03-01T00:37:32;6.10;99.90
30973;DHT22;25423;45.624;13.790;2023-03-01T00:39:57;6.10;99.90
30973;DHT22;25423;45.624;13.790;2023-03-01T00:42:23;6.00;99.90
30973;DHT22;25423;45.624;13.790;2023-03-01T00:44:49;6.00;99.90
30973;DHT22;25423;45.624;13.790;2023-03-01T00:47:14;6.00;99.90
30973;DHT22;25423;45.624;13.790;2023-03-01T00:49:40;6.00;99.90
30973;DHT22;25423;45.624;13.790;2023-03-01T00:52:06;6.00;99.90
30973;DHT22;25423;45.624;13.790;2023-03-01T00:54:31;6.00;99.90
30973;DHT22;25423;45.624;13.790;2023-03-01T00:56:57;6.00;99.90
30973;DHT22;25423;45.624;13.790;2023-03-01T00:59:23;6.00;99.90
30973;DHT22;25423;45.624;13.790;2023-03-01T01:01:48;6.10;99.90
30973;DHT22;25423;45.624;13.790;2023-03-01T01:04:14;6.10;99.90
30973;DHT22;25423;45.624;13.790;2023-03-01T01:06:41;6.10;99.90
30973;DHT22;25423;45.624;13.790;2023-03-01T01:09:08;6.10;99.90
30973;DHT22;25423;45.624;13.790;2023-03-01T01:11:34;6.00;99.90
30973;DHT22;25423;45.624;13.790;2023-03-01T01:14:01;6.00;99.90
30973;DHT22;25423;45.624;13.790;2023-03-01T01:16:28;6.00;99.90
30973;DHT22;25423;45.624;13.790;2023-03-01T01:18:54;6.00;99.90
30973;DHT22;25423;45.624;13.790;2023-03-01T01:21:21;6.00;99.90
30973;DHT22;25423;45.624;13.790;2023-03-01T01:23:48;6.00;99.90
30973;DHT22;25423;45.624;13.790;2023-03-01T01:26:15;6.00;99.90
30973;DHT22;25423;45.624;13.790;2023-03-01T01:28:41;6.00;99.90
30973;DHT22;25423;45.624;13.790;2023-03-01T01:31:07;6.00;99.90
30973;DHT22;25423;45.624;13.790;2023-03-01T01:33:33;6.00;99.90
30973;DHT22;25423;45.624;13.790;2023-03-01T01:35:58;6.00;99.90
30973;DHT22;25423;45.624;13.790;2023-03-01T01:38:24;5.90;99.90
30973;DHT22;25423;45.624;13.790;2023-03-01T01:40:50;5.90;99.90
30973;DHT22;25423;45.624;13.790;2023-03-01T01:43:18;5.90;99.90
30973;DHT22;25423;45.624;13.790;2023-03-01T01:45:44;5.90;99.90
30973;DHT22;25423;45.624;13.790;2023-03-01T01:48:14;6.00;99.90
30973;DHT22;25423;45.624;13.790;2023-03-01T01:50:41;6.00;99.90
30973;DHT22;25423;45.624;13.790;2023-03-01T01:53:11;6.00;99.90
30973;DHT22;25423;45.624;13.790;2023-03-01T01:55:39;6.00;99.90
30973;DHT22;25423;45.624;13.790;2023-03-01T01:58:09;6.00;99.90
30973;DHT22;25423;45.624;13.790;2023-03-01T02:00:36;6.00;99.90
30973;DHT22;25423;45.624;13.790;2023-03-01T02:03:07;6.10;99.90
30973;DHT22;25423;45.624;13.790;2023-03-01T02:08:18;6.10;99.90
30973;DHT22;25423;45.624;13.790;2023-03-01T02:10:45;6.10;99.90
30973;DHT22;25423;45.624;13.790;2023-03-01T02:13:11;6.10;99.90
30973;DHT22;25423;45.624;13.790;2023-03-01T02:15:37;6.00;99.90
30973;DHT22;25423;45.624;13.790;2023-03-01T02:18:03;6.00;99.90
30973;DHT22;25423;45.624;13.790;2023-03-01T02:20:34;6.00;99.90
30973;DHT22;25423;45.624;13.790;2023-03-01T02:23:00;6.00;99.90
30973;DHT22;25423;45.624;13.790;2023-03-01T02:25:47;6.00;99.90
30973;DHT22;25423;45.624;13.790;2023-03-01T02:30:45;6.10;99.90
30973;DHT22;25423;45.624;13.790;2023-03-01T02:33:31;6.10;99.90
30973;DHT22;25423;45.624;13.790;2023-03-01T02:36:00;6.10;99.90
30973;DHT22;25423;45.624;13.790;2023-03-01T02:38:27;6.10;99.90
30973;DHT22;25423;45.624;13.790;2023-03-01T02:40:53;6.10;99.90
30973;DHT22;25423;45.624;13.790;2023-03-01T02:43:20;6.20;99.90
30973;DHT22;25423;45.624;13.790;2023-03-01T02:45:49;6.20;99.90
30973;DHT22;25423;45.624;13.790;2023-03-01T02:48:15;6.20;99.90
30973;DHT22;25423;45.624;13.790;2023-03-01T02:50:46;6.20;99.90
30973;DHT22;25423;45.624;13.790;2023-03-01T02:53:16;6.20;99.90
30973;DHT22;25423;45.624;13.790;2023-03-01T02:55:45;6.20;99.90
30973;DHT22;25423;45.624;13.790;2023-03-01T02:58:11;6.20;99.90
30973;DHT22;25423;45.624;13.790;2023-03-01T03:00:37;6.20;99.90
30973;DHT22;25423;45.624;13.790;2023-03-01T03:03:05;6.30;99.90
30973;DHT22;25423;45.624;13.790;2023-03-01T03:05:31;6.20;99.90
30973;DHT22;25423;45.624;13.790;2023-03-01T03:07:58;6.30;99.90
30973;DHT22;25423;45.624;13.790;2023-03-01T03:10:25;6.30;99.90
30973;DHT22;25423;45.624;13.790;2023-03-01T03:12:55;6.20;99.90
30973;DHT22;25423;45.624;13.790;2023-03-01T03:15:22;6.30;99.90
30973;DHT22;25423;45.624;13.790;2023-03-01T03:17:48;6.30;99.90
30973;DHT22;25423;45.624;13.790;2023-03-01T03:20:15;6.30;99.90
30973;DHT22;25423;45.624;13.790;2023-03-01T03:22:44;6.30;99.90
30973;DHT22;25423;45.624;13.790;2023-03-01T03:25:10;6.30;99.90
30973;DHT22;25423;45.624;13.790;2023-03-01T03:27:36;6.30;99.90
30973;DHT22;25423;45.624;13.790;2023-03-01T03:30:04;6.30;99.90
30973;DHT22;25423;45.624;13.790;2023-03-01T03:32:37;6.40;99.90
30973;DHT22;25423;45.624;13.790;2023-03-01T03:35:03;6.40;99.90
30973;DHT22;25423;45.624;13.790;2023-03-01T03:37:40;6.40;99.90
30973;DHT22;25423;45.624;13.790;2023-03-01T03:40:25;6.40;99.90
30973;DHT22;25423;45.624;13.790;2023-03-01T03:42:51;6.40;99.90
30973;DHT22;25423;45.624;13.790;2023-03-01T03:45:17;6.40;99.90
30973;DHT22;25423;45.624;13.790;2023-03-01T03:47:43;6.40;99.90
30973;DHT22;25423;45.624;13.790;2023-03-01T03:50:09;6.40;99.90
30973;DHT22;25423;45.624;13.790;2023-03-01T03:52:35;6.40;99.90
30973;DHT22;25423;45.624;13.790;2023-03-01T03:55:00;6.40;99.90
30973;DHT22;25423;45.624;13.790;2023-03-01T03:57:26;6.40;99.90
30973;DHT22;25423;45.624;13.790;2023-03-01T03:59:52;6.40;99.90
30973;DHT22;25423;45.624;13.790;2023-03-01T04:02:17;6.40;99.90
30973;DHT22;25423;45.624;13.790;2023-03-01T04:04:47;6.40;99.90
30973;DHT22;25423;45.624;13.790;2023-03-01T04:07:15;6.40;99.90
30973;DHT22;25423;45.624;13.790;2023-03-01T04:09:41;6.40;99.90
30973;DHT22;25423;45.624;13.790;2023-03-01T04:12:08;6.40;99.90
30973;DHT22;25423;45.624;13.790;2023-03-01T04:14:33;6.40;99.90
30973;DHT22;25423;45.624;13.790;2023-03-01T04:16:59;6.40;99.90
30973;DHT22;25423;45.624;13.790;2023-03-01T04:19:25;6.40;99.90
30973;DHT22;25423;45.624;13.790;2023-03-01T04:21:52;6.40;99.90
30973;DHT22;25423;45.624;13.790;2023-03-01T04:24:18;6.40;99.90
30973;DHT22;25423;45.624;13.790;2023-03-01T04:26:44;6.40;99.90
30973;DHT22;25423;45.624;13.790;2023-03-01T04:29:09;6.40;99.90
30973;DHT22;25423;45.624;13.790;2023-03-01T04:31:35;6.40;99.90
30973;DHT22;25423;45.624;13.790;2023-03-01T04:34:01;6.40;99.90
30973;DHT22;25423;45.624;13.790;2023-03-01T04:36:28;6.40;99.90
30973;DHT22;25423;45.624;13.790;2023-03-01T04:38:54;6.40;99.90
30973;DHT22;25423;45.624;13.790;2023-03-01T04:41:21;6.40;99.90
30973;DHT22;25423;45.624;13.790;2023-03-01T04:43:47;6.50;99.90
30973;DHT22;25423;45.624;13.790;2023-03-01T04:46:14;6.50;99.90
30973;DHT22;25423;45.624;13.790;2023-03-01T04:48:41;6.50;99.90
30973;DHT22;25423;45.624;13.790;2023-03-01T04:51:07;6.50;99.90
30973;DHT22;25423;45.624;13.790;2023-03-01T04:53:34;6.50;99.90
30973;DHT22;25423;45.624;13.790;2023-03-01T04:56:01;6.50;99.90
30973;DHT22;25423;45.624;13.790;2023-03-01T04:58:27;6.50;99.90
30973;DHT22;25423;45.624;13.790;2023-03-01T05:00:53;6.40;99.90
30973;DHT22;25423;45.624;13.790;2023-03-01T05:03:19;6.40;99.90
30973;DHT22;25423;45.624;13.790;2023-03-01T05:05:46;6.40;99.90
30973;DHT22;25423;45.624;13.790;2023-03-01T05:08:12;6.40;99.90
30973;DHT22;25423;45.624;13.790;2023-03-01T05:10:47;6.40;99.90
30973;DHT22;25423;45.624;13.790;2023-03-01T05:13:13;6.30;99.90
30973;DHT22;25423;45.624;13.790;2023-03-01T05:15:56;6.30;99.90
30973;DHT22;25423;45.624;13.790;2023-03-01T05:18:22;6.30;99.90
30973;DHT22;25423;45.624;13.790;2023-03-01T05:20:51;6.40;99.90
30973;DHT22;25423;45.624;13.790;2023-03-01T05:23:17;6.30;99.90
30973;DHT22;25423;45.624;13.790;2023-03-01T05:25:44;6.30;99.90
30973;DHT22;25423;45.624;13.790;2023-03-01T05:28:13;6.30;99.90
30973;DHT22;25423;45.624;13.790;2023-03-01T05:30:39;6.30;99.90
30973;DHT22;25423;45.624;13.790;2023-03-01T05:33:05;6.30;99.90
30973;DHT22;25423;45.624;13.790;2023-03-01T05:35:35;6.30;99.90
30973;DHT22;25423;45.624;13.790;2023-03-01T05:38:01;6.30;99.90
30973;DHT22;25423;45.624;13.790;2023-03-01T05:40:27;6.30;99.90
30973;DHT22;25423;45.624;13.790;2023-03-01T05:42:53;6.20;99.90
30973;DHT22;25423;45.624;13.790;2023-03-01T05:45:20;6.20;99.90
30973;DHT22;25423;45.624;13.790;2023-03-01T05:47:47;6.30;99.90
30973;DHT22;25423;45.624;13.790;2023-03-01T05:50:13;6.20;99.90
30973;DHT22;25423;45.624;13.790;2023-03-01T05:52:39;6.20;99.90
30973;DHT22;25423;45.624;13.790;2023-03-01T05:55:05;6.20;99.90
30973;DHT22;25423;45.624;13.790;2023-03-01T05:57:31;6.20;99.90
30973;DHT22;25423;45.624;13.790;2023-03-01T05:59:57;6.20;99.90
30973;DHT22;25423;45.624;13.790;2023-03-01T06:02:22;6.20;99.90
30973;DHT22;25423;45.624;13.790;2023-03-01T06:04:48;6.20;99.90
30973;DHT22;25423;45.624;13.790;2023-03-01T06:07:14;6.20;99.90
30973;DHT22;25423;45.624;13.790;2023-03-01T06:09:39;6.20;99.90
30973;DHT22;25423;45.624;13.790;2023-03-01T06:12:05;6.20;99.90
30973;DHT22;25423;45.624;13.790;2023-03-01T06:14:31;6.20;99.90
30973;DHT22;25423;45.624;13.790;2023-03-01T06:16:57;6.30;99.90
30973;DHT22;25423;45.624;13.790;2023-03-01T06:19:23;6.30;99.90
30973;DHT22;25423;45.624;13.790;2023-03-01T06:21:49;6.30;99.90
30973;DHT22;25423;45.624;13.790;2023-03-01T06:24:14;6.30;99.90
30973;DHT22;25423;45.624;13.790;2023-03-01T06:26:40;6.40;99.90
30973;DHT22;25423;45.624;13.790;2023-03-01T06:29:05;6.40;99.90
30973;DHT22;25423;45.624;13.790;2023-03-01T06:31:31;6.40;99.90
30973;DHT22;25423;45.624;13.790;2023-03-01T06:33:57;6.50;99.90
30973;DHT22;25423;45.624;13.790;2023-03-01T06:36:22;6.50;99.90
30973;DHT22;25423;45.624;13.790;2023-03-01T06:38:48;6.50;99.90
30973;DHT22;25423;45.624;13.790;2023-03-01T06:41:14;6.50;99.90
30973;DHT22;25423;45.624;13.790;2023-03-01T06:43:39;6.50;99.90
30973;DHT22;25423;45.624;13.790;2023-03-01T06:46:05;6.50;99.90
30973;DHT22;25423;45.624;13.790;2023-03-01T06:48:32;6.40;99.90
30973;DHT22;25423;45.624;13.790;2023-03-01T06:50:59;6.50;99.90
30973;DHT22;25423;45.624;13.790;2023-03-01T06:53:26;6.50;99.90
30973;DHT22;25423;45.624;13.790;2023-03-01T06:55:58;6.50;99.90
30973;DHT22;25423;45.624;13.790;2023-03-01T06:58:25;6.60;99.90
30973;DHT22;25423;45.624;13.790;2023-03-01T07:00:51;6.60;99.90
30973;DHT22;25423;45.624;13.790;2023-03-01T07:03:17;6.60;99.90
30973;DHT22;25423;45.624;13.790;2023-03-01T07:05:43;6.60;99.90
30973;DHT22;25423;45.624;13.790;2023-03-01T07:08:10;6.60;99.90
30973;DHT22;25423;45.624;13.790;2023-03-01T07:10:35;6.60;99.90
30973;DHT22;25423;45.624;13.790;2023-03-01T07:13:01;6.60;99.90
30973;DHT22;25423;45.624;13.790;2023-03-01T07:15:27;6.50;99.90
30973;DHT22;25423;45.624;13.790;2023-03-01T07:17:53;6.60;99.90
30973;DHT22;25423;45.624;13.790;2023-03-01T07:20:19;6.60;99.90
30973;DHT22;25423;45.624;13.790;2023-03-01T07:22:50;6.70;99.90
30973;DHT22;25423;45.624;13.790;2023-03-01T07:25:15;6.70;99.90
30973;DHT22;25423;45.624;13.790;2023-03-01T07:27:41;6.70;99.90
30973;DHT22;25423;45.624;13.790;2023-03-01T07:30:07;6.80;99.90
30973;DHT22;25423;45.624;13.790;2023-03-01T07:32:33;6.80;99.90
30973;DHT22;25423;45.624;13.790;2023-03-01T07:34:58;6.80;99.90
30973;DHT22;25423;45.624;13.790;2023-03-01T07:37:24;6.90;99.90
30973;DHT22;25423;45.624;13.790;2023-03-01T07:39:50;6.90;99.90
30973;DHT22;25423;45.624;13.790;2023-03-01T07:42:15;6.90;99.90
30973;DHT22;25423;45.624;13.790;2023-03-01T07:44:41;7.00;99.90
30973;DHT22;25423;45.624;13.790;2023-03-01T07:47:07;7.00;99.90
30973;DHT22;25423;45.624;13.790;2023-03-01T07:49:32;7.00;99.90
30973;DHT22;25423;45.624;13.790;2023-03-01T07:51:58;6.90;99.90
30973;DHT22;25423;45.624;13.790;2023-03-01T07:54:24;6.90;99.90
30973;DHT22;25423;45.624;13.790;2023-03-01T07:56:51;6.80;99.90
30973;DHT22;25423;45.624;13.790;2023-03-01T07:59:17;6.70;99.90
30973;DHT22;25423;45.624;13.790;2023-03-01T08:01:43;6.70;99.90
30973;DHT22;25423;45.624;13.790;2023-03-01T08:04:08;6.60;99.90
30973;DHT22;25423;45.624;13.790;2023-03-01T08:06:35;6.60;99.90
30973;DHT22;25423;45.624;13.790;2023-03-01T08:09:01;6.60;99.90
30973;DHT22;25423;45.624;13.790;2023-03-01T08:11:27;6.70;99.90
30973;DHT22;25423;45.624;13.790;2023-03-01T08:13:55;6.70;99.90
30973;DHT22;25423;45.624;13.790;2023-03-01T08:16:21;6.70;99.90
30973;DHT22;25423;45.624;13.790;2023-03-01T08:18:47;6.70;99.90
30973;DHT22;25423;45.624;13.790;2023-03-01T08:21:14;6.70;99.90
30973;DHT22;25423;45.624;13.790;2023-03-01T08:23:40;6.80;99.90
30973;DHT22;25423;45.624;13.790;2023-03-01T08:26:13;6.90;99.90
30973;DHT22;25423;45.624;13.790;2023-03-01T08:28:39;6.90;99.90
30973;DHT22;25423;45.624;13.790;2023-03-01T08:33:42;7.00;99.90
30973;DHT22;25423;45.624;13.790;2023-03-01T08:36:08;7.00;99.90
30973;DHT22;25423;45.624;13.790;2023-03-01T08:38:34;7.00;99.90
30973;DHT22;25423;45.624;13.790;2023-03-01T08:41:00;6.90;99.90
30973;DHT22;25423;45.624;13.790;2023-03-01T08:43:26;6.90;99.90
30973;DHT22;25423;45.624;13.790;2023-03-01T08:45:52;6.90;99.90
30973;DHT22;25423;45.624;13.790;2023-03-01T08:48:17;6.80;99.90
30973;DHT22;25423;45.624;13.790;2023-03-01T08:50:43;6.80;99.90
30973;DHT22;25423;45.624;13.790;2023-03-01T08:53:09;6.80;99.90
30973;DHT22;25423;45.624;13.790;2023-03-01T08:55:34;6.80;99.90
30973;DHT22;25423;45.624;13.790;2023-03-01T08:58:00;7.20;99.90
30973;DHT22;25423;45.624;13.790;2023-03-01T09:00:25;7.50;99.90
30973;DHT22;25423;45.624;13.790;2023-03-01T09:02:51;7.70;99.90
30973;DHT22;25423;45.624;13.790;2023-03-01T09:05:17;7.60;99.90
30973;DHT22;25423;45.624;13.790;2023-03-01T09:07:42;7.70;99.90
30973;DHT22;25423;45.624;13.790;2023-03-01T09:10:08;7.50;99.90
30973;DHT22;25423;45.624;13.790;2023-03-01T09:12:34;7.40;99.90
30973;DHT22;25423;45.624;13.790;2023-03-01T09:15:00;7.30;99.90
30973;DHT22;25423;45.624;13.790;2023-03-01T09:17:25;7.30;99.90
30973;DHT22;25423;45.624;13.790;2023-03-01T09:19:51;7.30;99.90
30973;DHT22;25423;45.624;13.790;2023-03-01T09:22:20;7.20;99.90
30973;DHT22;25423;45.624;13.790;2023-03-01T09:24:46;7.20;99.90
30973;DHT22;25423;45.624;13.790;2023-03-01T09:27:11;7.30;99.90
30973;DHT22;25423;45.624;13.790;2023-03-01T09:29:38;7.30;99.90
30973;DHT22;25423;45.624;13.790;2023-03-01T09:32:05;7.40;99.90
30973;DHT22;25423;45.624;13.790;2023-03-01T09:34:32;7.50;99.90
30973;DHT22;25423;45.624;13.790;2023-03-01T09:37:17;7.50;99.90
30973;DHT22;25423;45.624;13.790;2023-03-01T09:39:43;7.50;99.90
30973;DHT22;25423;45.624;13.790;2023-03-01T09:42:10;7.50;99.90
30973;DHT22;25423;45.624;13.790;2023-03-01T09:44:42;7.50;99.90
30973;DHT22;25423;45.624;13.790;2023-03-01T09:47:14;7.60;99.90
30973;DHT22;25423;45.624;13.790;2023-03-01T09:49:40;7.60;99.90
30973;DHT22;25423;45.624;13.790;2023-03-01T09:54:32;7.60;99.90
30973;DHT22;25423;45.624;13.790;2023-03-01T09:57:06;7.60;99.90
30973;DHT22;25423;45.624;13.790;2023-03-01T10:04:46;7.60;99.90
30973;DHT22;25423;45.624;13.790;2023-03-01T10:09:47;7.50;99.90
30973;DHT22;25423;45.624;13.790;2023-03-01T10:12:15;7.50;99.90
30973;DHT22;25423;45.624;13.790;2023-03-01T10:17:37;7.60;99.90
30973;DHT22;25423;45.624;13.790;2023-03-01T10:20:18;7.70;99.90
30973;DHT22;25423;45.624;13.790;2023-03-01T10:22:44;7.70;99.90
30973;DHT22;25423;45.624;13.790;2023-03-01T10:25:17;7.70;99.90
30973;DHT22;25423;45.624;13.790;2023-03-01T10:27:54;7.80;99.90
30973;DHT22;25423;45.624;13.790;2023-03-01T10:30:32;7.90;99.90
30973;DHT22;25423;45.624;13.790;2023-03-01T10:32:58;7.90;99.90
30973;DHT22;25423;45.624;13.790;2023-03-01T10:35:25;7.90;99.90
30973;DHT22;25423;45.624;13.790;2023-03-01T10:40:28;7.80;99.90
30973;DHT22;25423;45.624;13.790;2023-03-01T10:42:54;7.80;99.90
30973;DHT22;25423;45.624;13.790;2023-03-01T10:50:40;7.70;99.90
30973;DHT22;25423;45.624;13.790;2023-03-01T10:56:01;7.70;99.90
30973;DHT22;25423;45.624;13.790;2023-03-01T10:58:27;7.70;99.90
30973;DHT22;25423;45.624;13.790;2023-03-01T11:00:57;7.70;99.90
30973;DHT22;25423;45.624;13.790;2023-03-01T11:03:27;7.70;99.90
30973;DHT22;25423;45.624;13.790;2023-03-01T11:11:31;7.80;99.90
30973;DHT22;25423;45.624;13.790;2023-03-01T11:13:57;7.80;99.90
30973;DHT22;25423;45.624;13.790;2023-03-01T11:16:28;7.80;99.90
30973;DHT22;25423;45.624;13.790;2023-03-01T11:19:03;7.80;99.90
30973;DHT22;25423;45.624;13.790;2023-03-01T11:21:31;7.80;99.90
30973;DHT22;25423;45.624;13.790;2023-03-01T11:23:58;7.90;99.90
30973;DHT22;25423;45.624;13.790;2023-03-01T11:26:25;7.90;99.90
30973;DHT22;25423;45.624;13.790;2023-03-01T11:28:53;7.90;99.90
30973;DHT22;25423;45.624;13.790;2023-03-01T11:31:20;8.00;99.90
30973;DHT22;25423;45.624;13.790;2023-03-01T11:34:01;7.90;99.90
30973;DHT22;25423;45.624;13.790;2023-03-01T11:39:05;7.80;99.90
30973;DHT22;25423;45.624;13.790;2023-03-01T11:41:37;7.90;99.90
30973;DHT22;25423;45.624;13.790;2023-03-01T11:46:45;7.80;99.90
30973;DHT22;25423;45.624;13.790;2023-03-01T11:54:24;7.70;99.90
30973;DHT22;25423;45.624;13.790;2023-03-01T12:02:29;7.70;99.90
30973;DHT22;25423;45.624;13.790;2023-03-01T12:05:18;7.70;99.90
30973;DHT22;25423;45.624;13.790;2023-03-01T12:23:42;7.80;99.90
30973;DHT22;25423;45.624;13.790;2023-03-01T12:26:25;7.70;99.90
30973;DHT22;25423;45.624;13.790;2023-03-01T12:41:59;7.60;99.90
30973;DHT22;25423;45.624;13.790;2023-03-01T12:50:03;7.60;99.90
30973;DHT22;25423;45.624;13.790;2023-03-01T12:52:40;7.60;99.90
30973;DHT22;25423;45.624;13.790;2023-03-01T12:55:08;7.70;99.90
30973;DHT22;25423;45.624;13.790;2023-03-01T12:57:41;7.60;99.90
30973;DHT22;25423;45.624;13.790;2023-03-01T13:12:50;7.70;99.90
30973;DHT22;25423;45.624;13.790;2023-03-01T13:23:13;7.60;99.90
30973;DHT22;25423;45.624;13.790;2023-03-01T13:26:09;7.70;99.90
30973;DHT22;25423;45.624;13.790;2023-03-01T13:31:11;7.60;99.90
30973;DHT22;25423;45.624;13.790;2023-03-01T13:33:55;7.60;99.90
30973;DHT22;25423;45.624;13.790;2023-03-01T13:42:25;7.40;99.90
30973;DHT22;25423;45.624;13.790;2023-03-01T13:46:45;7.20;99.90
30973;DHT22;25423;45.624;13.790;2023-03-01T13:49:13;7.30;99.90
30973;DHT22;25423;45.624;13.790;2023-03-01T13:51:40;7.30;99.90
30973;DHT22;25423;45.624;13.790;2023-03-01T13:54:09;7.20;99.90
30973;DHT22;25423;45.624;13.790;2023-03-01T13:56:36;7.30;99.90
30973;DHT22;25423;45.624;13.790;2023-03-01T13:59:04;7.30;99.90
30973;DHT22;25423;45.624;13.790;2023-03-01T14:01:31;7.30;99.90
30973;DHT22;25423;45.624;13.790;2023-03-01T14:03:57;7.40;99.90
30973;DHT22;25423;45.624;13.790;2023-03-01T14:06:27;7.30;99.90
30973;DHT22;25423;45.624;13.790;2023-03-01T14:19:19;7.40;99.90
30973;DHT22;25423;45.624;13.790;2023-03-01T14:21:50;7.40;99.90
30973;DHT22;25423;45.624;13.790;2023-03-01T14:24:23;7.40;99.90
30973;DHT22;25423;45.624;13.790;2023-03-01T14:26:49;7.40;99.90
30973;DHT22;25423;45.624;13.790;2023-03-01T14:29:25;7.40;99.90
30973;DHT22;25423;45.624;13.790;2023-03-01T14:31:50;7.30;99.90
30973;DHT22;25423;45.624;13.790;2023-03-01T14:34:20;7.20;99.90
30973;DHT22;25423;45.624;13.790;2023-03-01T14:36:46;7.10;99.90
30973;DHT22;25423;45.624;13.790;2023-03-01T14:39:19;7.10;99.90
30973;DHT22;25423;45.624;13.790;2023-03-01T14:41:45;7.10;99.90
30973;DHT22;25423;45.624;13.790;2023-03-01T14:44:21;7.00;99.90
30973;DHT22;25423;45.624;13.790;2023-03-01T14:46:51;7.00;99.90
30973;DHT22;25423;45.624;13.790;2023-03-01T14:49:18;7.00;99.90
30973;DHT22;25423;45.624;13.790;2023-03-01T14:51:55;7.00;99.90
30973;DHT22;25423;45.624;13.790;2023-03-01T14:54:26;7.00;99.90
30973;DHT22;25423;45.624;13.790;2023-03-01T14:56:53;7.00;99.90
30973;DHT22;25423;45.624;13.790;2023-03-01T14:59:21;7.10;99.90
30973;DHT22;25423;45.624;13.790;2023-03-01T15:01:47;7.10;99.90
30973;DHT22;25423;45.624;13.790;2023-03-01T15:04:13;7.10;99.90
30973;DHT22;25423;45.624;13.790;2023-03-01T15:06:39;7.10;99.90
30973;DHT22;25423;45.624;13.790;2023-03-01T15:09:06;7.10;99.90
30973;DHT22;25423;45.624;13.790;2023-03-01T15:11:33;7.10;99.90
30973;DHT22;25423;45.624;13.790;2023-03-01T15:13:58;7.20;99.90
30973;DHT22;25423;45.624;13.790;2023-03-01T15:16:31;7.20;99.90
30973;DHT22;25423;45.624;13.790;2023-03-01T15:19:01;7.20;99.90
30973;DHT22;25423;45.624;13.790;2023-03-01T15:21:29;7.30;99.90
30973;DHT22;25423;45.624;13.790;2023-03-01T15:24:06;7.30;99.90
30973;DHT22;25423;45.624;13.790;2023-03-01T15:26:57;7.30;99.90
30973;DHT22;25423;45.624;13.790;2023-03-01T15:29:27;7.30;99.90
30973;DHT22;25423;45.624;13.790;2023-03-01T15:32:02;7.30;99.90
30973;DHT22;25423;45.624;13.790;2023-03-01T15:34:33;7.30;99.90
30973;DHT22;25423;45.624;13.790;2023-03-01T15:37:00;7.40;99.90
30973;DHT22;25423;45.624;13.790;2023-03-01T15:44:37;7.30;99.90
30973;DHT22;25423;45.624;13.790;2023-03-01T15:47:08;7.30;99.90
30973;DHT22;25423;45.624;13.790;2023-03-01T15:49:46;7.30;99.90
30973;DHT22;25423;45.624;13.790;2023-03-01T15:52:13;7.40;99.90
30973;DHT22;25423;45.624;13.790;2023-03-01T15:54:40;7.30;99.90
30973;DHT22;25423;45.624;13.790;2023-03-01T15:57:12;7.30;99.90
30973;DHT22;25423;45.624;13.790;2023-03-01T15:59:39;7.40;99.90
30973;DHT22;25423;45.624;13.790;2023-03-01T16:02:11;7.40;99.90
30973;DHT22;25423;45.624;13.790;2023-03-01T16:04:38;7.50;99.90
30973;DHT22;25423;45.624;13.790;2023-03-01T16:07:04;7.50;99.90
30973;DHT22;25423;45.624;13.790;2023-03-01T16:09:29;7.50;99.90
30973;DHT22;25423;45.624;13.790;2023-03-01T16:11:55;7.50;99.90
30973;DHT22;25423;45.624;13.790;2023-03-01T16:14:21;7.60;99.90
30973;DHT22;25423;45.624;13.790;2023-03-01T16:16:47;7.60;99.90
30973;DHT22;25423;45.624;13.790;2023-03-01T16:19:16;7.70;99.90
30973;DHT22;25423;45.624;13.790;2023-03-01T16:21:41;7.70;99.90
30973;DHT22;25423;45.624;13.790;2023-03-01T16:24:09;7.70;99.90
30973;DHT22;25423;45.624;13.790;2023-03-01T16:26:35;7.80;99.90
30973;DHT22;25423;45.624;13.790;2023-03-01T16:29:01;7.80;99.90
30973;DHT22;25423;45.624;13.790;2023-03-01T16:31:27;7.80;99.90
30973;DHT22;25423;45.624;13.790;2023-03-01T16:33:54;7.90;99.90
30973;DHT22;25423;45.624;13.790;2023-03-01T16:36:20;7.80;99.90
30973;DHT22;25423;45.624;13.790;2023-03-01T16:38:48;7.80;99.90
30973;DHT22;25423;45.624;13.790;2023-03-01T16:41:15;7.80;99.90
30973;DHT22;25423;45.624;13.790;2023-03-01T16:43:40;7.70;99.90
30973;DHT22;25423;45.624;13.790;2023-03-01T16:46:10;7.80;99.90
30973;DHT22;25423;45.624;13.790;2023-03-01T16:48:36;7.80;99.90
30973;DHT22;25423;45.624;13.790;2023-03-01T16:51:01;7.80;99.90
30973;DHT22;25423;45.624;13.790;2023-03-01T16:53:28;7.80;99.90
30973;DHT22;25423;45.624;13.790;2023-03-01T16:55:57;7.80;99.90
30973;DHT22;25423;45.624;13.790;2023-03-01T16:58:23;7.90;99.90
30973;DHT22;25423;45.624;13.790;2023-03-01T17:00:52;7.80;99.90
30973;DHT22;25423;45.624;13.790;2023-03-01T17:03:24;7.80;99.90
30973;DHT22;25423;45.624;13.790;2023-03-01T17:05:51;7.80;99.90
30973;DHT22;25423;45.624;13.790;2023-03-01T17:08:17;7.90;99.90
30973;DHT22;25423;45.624;13.790;2023-03-01T17:10:43;7.90;99.90
30973;DHT22;25423;45.624;13.790;2023-03-01T17:13:09;7.90;99.90
30973;DHT22;25423;45.624;13.790;2023-03-01T17:15:38;7.90;99.90
30973;DHT22;25423;45.624;13.790;2023-03-01T17:18:03;7.80;99.90
30973;DHT22;25423;45.624;13.790;2023-03-01T17:20:29;7.80;99.90
30973;DHT22;25423;45.624;13.790;2023-03-01T17:22:54;7.80;99.90
30973;DHT22;25423;45.624;13.790;2023-03-01T17:25:20;7.70;99.90
30973;DHT22;25423;45.624;13.790;2023-03-01T17:27:46;7.70;99.90
30973;DHT22;25423;45.624;13.790;2023-03-01T17:30:13;7.60;99.90
30973;DHT22;25423;45.624;13.790;2023-03-01T17:32:39;7.70;99.90
30973;DHT22;25423;45.624;13.790;2023-03-01T17:35:05;7.60;99.90
30973;DHT22;25423;45.624;13.790;2023-03-01T17:37:32;7.70;99.90
30973;DHT22;25423;45.624;13.790;2023-03-01T17:39:58;7.70;99.90
30973;DHT22;25423;45.624;13.790;2023-03-01T17:42:23;7.80;99.90
30973;DHT22;25423;45.624;13.790;2023-03-01T17:44:49;7.80;99.90
30973;DHT22;25423;45.624;13.790;2023-03-01T17:47:15;7.80;99.90